sensor_id;sensor_type;location;lat;lon;timestamp;P1;durP1;ratioP1;P2;durP2;ratioP2
4226;SDS011;2127;51.046;7.080;2023-08-01T00:00:56;5.50;;;1.90;;
4226;SDS011;2127;51.046;7.080;2023-08-01T00:03:22;3.57;;;2.27;;
4226;SDS011;2127;51.046;7.080;2023-08-01T00:05:48;4.80;;;3.80;;
4226;SDS011;2127;51.046;7.080;2023-08-01T00:08:15;5.83;;;5.30;;
4226;SDS011;2127;51.046;7.080;2023-08-01T00:10:41;7.70;;;5.73;;
4226;SDS011;2127;51.046;7.080;2023-08-01T00:13:07;18.17;;;6.07;;
4226;SDS011;2127;51.046;7.080;2023-08-01T00:15:35;9.27;;;6.80;;
4226;SDS011;2127;51.046;7.080;2023-08-01T00:18:02;12.57;;;5.83;;
4226;SDS011;2127;51.046;7.080;2023-08-01T00:20:28;5.70;;;5.20;;
4226;SDS011;2127;51.046;7.080;2023-08-01T00:22:54;14.47;;;5.07;;
4226;SDS011;2127;51.046;7.080;2023-08-01T00:25:21;7.93;;;4.63;;
4226;SDS011;2127;51.046;7.080;2023-08-01T00:27:47;6.13;;;5.23;;
4226;SDS011;2127;51.046;7.080;2023-08-01T00:30:13;7.67;;;4.97;;
4226;SDS011;2127;51.046;7.080;2023-08-01T00:32:41;3.83;;;3.53;;
4226;SDS011;2127;51.046;7.080;2023-08-01T00:35:08;9.77;;;3.23;;
4226;SDS011;2127;51.046;7.080;2023-08-01T00:37:34;3.70;;;3.37;;
4226;SDS011;2127;51.046;7.080;2023-08-01T00:40:00;2.50;;;2.23;;
4226;SDS011;2127;51.046;7.080;2023-08-01T00:42:27;3.63;;;3.03;;
4226;SDS011;2127;51.046;7.080;2023-08-01T00:44:53;1.80;;;1.70;;
4226;SDS011;2127;51.046;7.080;2023-08-01T00:47:19;3.30;;;3.00;;
4226;SDS011;2127;51.046;7.080;2023-08-01T00:49:47;2.27;;;2.17;;
4226;SDS011;2127;51.046;7.080;2023-08-01T00:52:13;2.57;;;2.37;;
4226;SDS011;2127;51.046;7.080;2023-08-01T00:54:39;2.27;;;2.17;;
4226;SDS011;2127;51.046;7.080;2023-08-01T00:57:06;1.70;;;1.60;;
4226;SDS011;2127;51.046;7.080;2023-08-01T00:59:33;3.47;;;1.93;;
4226;SDS011;2127;51.046;7.080;2023-08-01T01:01:59;1.17;;;1.17;;
4226;SDS011;2127;51.046;7.080;2023-08-01T01:04:26;1.37;;;1.37;;
4226;SDS011;2127;51.046;7.080;2023-08-01T01:06:57;0.60;;;0.60;;
4226;SDS011;2127;51.046;7.080;2023-08-01T01:09:23;1.40;;;1.30;;
4226;SDS011;2127;51.046;7.080;2023-08-01T01:11:49;2.83;;;1.40;;
4226;SDS011;2127;51.046;7.080;2023-08-01T01:14:16;0.80;;;0.80;;
4226;SDS011;2127;51.046;7.080;2023-08-01T01:16:42;0.77;;;0.77;;
4226;SDS011;2127;51.046;7.080;2023-08-01T01:19:09;1.77;;;1.67;;
4226;SDS011;2127;51.046;7.080;2023-08-01T01:21:37;1.00;;;1.00;;
4226;SDS011;2127;51.046;7.080;2023-08-01T01:24:04;0.80;;;0.70;;
4226;SDS011;2127;51.046;7.080;2023-08-01T01:26:31;0.60;;;0.60;;
4226;SDS011;2127;51.046;7.080;2023-08-01T01:28:58;2.27;;;0.80;;
4226;SDS011;2127;51.046;7.080;2023-08-01T01:31:24;1.27;;;0.60;;
4226;SDS011;2127;51.046;7.080;2023-08-01T01:33:51;0.67;;;0.67;;
4226;SDS011;2127;51.046;7.080;2023-08-01T01:36:18;0.87;;;0.87;;
4226;SDS011;2127;51.046;7.080;2023-08-01T01:38:45;1.30;;;1.20;;
4226;SDS011;2127;51.046;7.080;2023-08-01T01:41:12;0.40;;;0.40;;
4226;SDS011;2127;51.046;7.080;2023-08-01T01:43:38;0.67;;;0.60;;
4226;SDS011;2127;51.046;7.080;2023-08-01T01:46:04;0.30;;;0.30;;
4226;SDS011;2127;51.046;7.080;2023-08-01T01:48:30;0.40;;;0.40;;
4226;SDS011;2127;51.046;7.080;2023-08-01T01:50:57;0.43;;;0.43;;
4226;SDS011;2127;51.046;7.080;2023-08-01T01:53:23;0.50;;;0.50;;
4226;SDS011;2127;51.046;7.080;2023-08-01T01:55:50;0.60;;;0.60;;
4226;SDS011;2127;51.046;7.080;2023-08-01T01:58:17;0.40;;;0.40;;
4226;SDS011;2127;51.046;7.080;2023-08-01T02:00:43;0.57;;;0.50;;
4226;SDS011;2127;51.046;7.080;2023-08-01T02:03:09;0.40;;;0.40;;
4226;SDS011;2127;51.046;7.080;2023-08-01T02:05:39;0.37;;;0.37;;
4226;SDS011;2127;51.046;7.080;2023-08-01T02:08:05;0.30;;;0.30;;
4226;SDS011;2127;51.046;7.080;2023-08-01T02:10:31;0.40;;;0.40;;
4226;SDS011;2127;51.046;7.080;2023-08-01T02:12:59;2.20;;;0.30;;
4226;SDS011;2127;51.046;7.080;2023-08-01T02:15:25;0.30;;;0.20;;
4226;SDS011;2127;51.046;7.080;2023-08-01T02:17:51;0.40;;;0.40;;
4226;SDS011;2127;51.046;7.080;2023-08-01T02:20:18;0.50;;;0.50;;
4226;SDS011;2127;51.046;7.080;2023-08-01T02:22:44;0.30;;;0.30;;
4226;SDS011;2127;51.046;7.080;2023-08-01T02:25:10;1.03;;;0.40;;
4226;SDS011;2127;51.046;7.080;2023-08-01T02:27:37;0.30;;;0.30;;
4226;SDS011;2127;51.046;7.080;2023-08-01T02:30:05;0.30;;;0.30;;
4226;SDS011;2127;51.046;7.080;2023-08-01T02:32:32;0.50;;;0.50;;
4226;SDS011;2127;51.046;7.080;2023-08-01T02:34:58;0.30;;;0.30;;
4226;SDS011;2127;51.046;7.080;2023-08-01T02:37:24;3.30;;;0.50;;
4226;SDS011;2127;51.046;7.080;2023-08-01T02:39:50;0.30;;;0.30;;
4226;SDS011;2127;51.046;7.080;2023-08-01T02:42:17;5.87;;;0.70;;
4226;SDS011;2127;51.046;7.080;2023-08-01T02:44:43;0.33;;;0.33;;
4226;SDS011;2127;51.046;7.080;2023-08-01T02:47:11;0.60;;;0.60;;
4226;SDS011;2127;51.046;7.080;2023-08-01T02:49:37;0.40;;;0.30;;
4226;SDS011;2127;51.046;7.080;2023-08-01T02:52:03;0.53;;;0.47;;
4226;SDS011;2127;51.046;7.080;2023-08-01T02:54:30;0.40;;;0.37;;
4226;SDS011;2127;51.046;7.080;2023-08-01T02:56:56;0.50;;;0.30;;
4226;SDS011;2127;51.046;7.080;2023-08-01T02:59:22;0.40;;;0.40;;
4226;SDS011;2127;51.046;7.080;2023-08-01T03:01:49;0.50;;;0.50;;
4226;SDS011;2127;51.046;7.080;2023-08-01T03:04:16;0.50;;;0.40;;
4226;SDS011;2127;51.046;7.080;2023-08-01T03:06:43;0.40;;;0.40;;
4226;SDS011;2127;51.046;7.080;2023-08-01T03:09:09;0.50;;;0.50;;
4226;SDS011;2127;51.046;7.080;2023-08-01T03:11:35;0.40;;;0.40;;
4226;SDS011;2127;51.046;7.080;2023-08-01T03:14:02;0.40;;;0.40;;
4226;SDS011;2127;51.046;7.080;2023-08-01T03:16:29;0.40;;;0.40;;
4226;SDS011;2127;51.046;7.080;2023-08-01T03:18:55;0.40;;;0.40;;
4226;SDS011;2127;51.046;7.080;2023-08-01T03:21:23;0.40;;;0.40;;
4226;SDS011;2127;51.046;7.080;2023-08-01T03:23:51;0.40;;;0.40;;
4226;SDS011;2127;51.046;7.080;2023-08-01T03:26:17;0.60;;;0.60;;
4226;SDS011;2127;51.046;7.080;2023-08-01T03:28:44;3.07;;;0.90;;
4226;SDS011;2127;51.046;7.080;2023-08-01T03:31:10;1.00;;;1.00;;
4226;SDS011;2127;51.046;7.080;2023-08-01T03:33:36;2.00;;;1.23;;
4226;SDS011;2127;51.046;7.080;2023-08-01T03:36:03;0.90;;;0.90;;
4226;SDS011;2127;51.046;7.080;2023-08-01T03:38:31;0.73;;;0.73;;
4226;SDS011;2127;51.046;7.080;2023-08-01T03:40:57;0.70;;;0.70;;
4226;SDS011;2127;51.046;7.080;2023-08-01T03:43:23;0.73;;;0.73;;
4226;SDS011;2127;51.046;7.080;2023-08-01T03:45:51;0.73;;;0.73;;
4226;SDS011;2127;51.046;7.080;2023-08-01T03:48:17;1.43;;;1.20;;
4226;SDS011;2127;51.046;7.080;2023-08-01T03:50:44;1.93;;;1.73;;
4226;SDS011;2127;51.046;7.080;2023-08-01T03:53:10;1.43;;;1.03;;
4226;SDS011;2127;51.046;7.080;2023-08-01T03:55:38;2.30;;;2.10;;
4226;SDS011;2127;51.046;7.080;2023-08-01T03:58:04;2.23;;;2.03;;
4226;SDS011;2127;51.046;7.080;2023-08-01T04:00:30;1.83;;;1.80;;
4226;SDS011;2127;51.046;7.080;2023-08-01T04:02:57;1.43;;;1.40;;
4226;SDS011;2127;51.046;7.080;2023-08-01T04:05:23;1.80;;;1.67;;
4226;SDS011;2127;51.046;7.080;2023-08-01T04:07:50;1.67;;;1.57;;
4226;SDS011;2127;51.046;7.080;2023-08-01T04:10:19;1.93;;;1.60;;
4226;SDS011;2127;51.046;7.080;2023-08-01T04:12:47;2.50;;;1.70;;
4226;SDS011;2127;51.046;7.080;2023-08-01T04:15:13;1.97;;;1.87;;
4226;SDS011;2127;51.046;7.080;2023-08-01T04:17:39;5.00;;;2.33;;
4226;SDS011;2127;51.046;7.080;2023-08-01T04:20:06;3.40;;;3.10;;
4226;SDS011;2127;51.046;7.080;2023-08-01T04:22:33;2.80;;;2.70;;
4226;SDS011;2127;51.046;7.080;2023-08-01T04:25:00;2.20;;;2.10;;
4226;SDS011;2127;51.046;7.080;2023-08-01T04:27:26;2.73;;;2.10;;
4226;SDS011;2127;51.046;7.080;2023-08-01T04:29:54;4.73;;;2.57;;
4226;SDS011;2127;51.046;7.080;2023-08-01T04:32:21;2.83;;;2.63;;
4226;SDS011;2127;51.046;7.080;2023-08-01T04:34:47;3.77;;;2.97;;
4226;SDS011;2127;51.046;7.080;2023-08-01T04:37:13;3.30;;;2.97;;
4226;SDS011;2127;51.046;7.080;2023-08-01T04:39:40;2.63;;;2.43;;
4226;SDS011;2127;51.046;7.080;2023-08-01T04:42:06;3.10;;;2.40;;
4226;SDS011;2127;51.046;7.080;2023-08-01T04:44:32;9.27;;;2.30;;
4226;SDS011;2127;51.046;7.080;2023-08-01T04:47:00;3.10;;;2.80;;
4226;SDS011;2127;51.046;7.080;2023-08-01T04:49:26;4.50;;;2.50;;
4226;SDS011;2127;51.046;7.080;2023-08-01T04:51:53;9.77;;;3.43;;
4226;SDS011;2127;51.046;7.080;2023-08-01T04:54:20;3.23;;;2.67;;
4226;SDS011;2127;51.046;7.080;2023-08-01T04:56:46;2.77;;;2.57;;
4226;SDS011;2127;51.046;7.080;2023-08-01T04:59:12;4.23;;;2.57;;
4226;SDS011;2127;51.046;7.080;2023-08-01T05:01:38;3.10;;;2.83;;
4226;SDS011;2127;51.046;7.080;2023-08-01T05:04:06;8.33;;;3.87;;
4226;SDS011;2127;51.046;7.080;2023-08-01T05:06:32;2.73;;;2.63;;
4226;SDS011;2127;51.046;7.080;2023-08-01T05:08:59;5.33;;;2.20;;
4226;SDS011;2127;51.046;7.080;2023-08-01T05:11:26;2.90;;;2.70;;
4226;SDS011;2127;51.046;7.080;2023-08-01T05:13:52;4.47;;;2.53;;
4226;SDS011;2127;51.046;7.080;2023-08-01T05:16:18;3.07;;;2.60;;
4226;SDS011;2127;51.046;7.080;2023-08-01T05:18:45;2.93;;;2.73;;
4226;SDS011;2127;51.046;7.080;2023-08-01T05:21:12;3.50;;;2.30;;
4226;SDS011;2127;51.046;7.080;2023-08-01T05:23:38;3.50;;;2.13;;
4226;SDS011;2127;51.046;7.080;2023-08-01T05:26:05;13.07;;;3.43;;
4226;SDS011;2127;51.046;7.080;2023-08-01T05:28:31;5.83;;;2.23;;
4226;SDS011;2127;51.046;7.080;2023-08-01T05:30:57;7.00;;;3.17;;
4226;SDS011;2127;51.046;7.080;2023-08-01T05:33:24;2.47;;;2.27;;
4226;SDS011;2127;51.046;7.080;2023-08-01T05:35:50;2.03;;;1.93;;
4226;SDS011;2127;51.046;7.080;2023-08-01T05:38:17;9.83;;;3.20;;
4226;SDS011;2127;51.046;7.080;2023-08-01T05:40:44;2.23;;;2.03;;
4226;SDS011;2127;51.046;7.080;2023-08-01T05:43:10;3.03;;;2.73;;
4226;SDS011;2127;51.046;7.080;2023-08-01T05:45:36;2.20;;;2.10;;
4226;SDS011;2127;51.046;7.080;2023-08-01T05:48:03;2.07;;;1.97;;
4226;SDS011;2127;51.046;7.080;2023-08-01T05:50:29;7.63;;;3.00;;
4226;SDS011;2127;51.046;7.080;2023-08-01T05:52:55;9.17;;;2.90;;
4226;SDS011;2127;51.046;7.080;2023-08-01T05:55:23;2.80;;;2.60;;
4226;SDS011;2127;51.046;7.080;2023-08-01T05:57:49;5.13;;;2.33;;
4226;SDS011;2127;51.046;7.080;2023-08-01T06:00:17;2.37;;;2.10;;
4226;SDS011;2127;51.046;7.080;2023-08-01T06:02:44;2.70;;;2.60;;
4226;SDS011;2127;51.046;7.080;2023-08-01T06:05:10;2.23;;;1.97;;
4226;SDS011;2127;51.046;7.080;2023-08-01T06:07:37;4.20;;;2.20;;
4226;SDS011;2127;51.046;7.080;2023-08-01T06:10:03;4.13;;;2.33;;
4226;SDS011;2127;51.046;7.080;2023-08-01T06:12:31;1.80;;;1.70;;
4226;SDS011;2127;51.046;7.080;2023-08-01T06:14:57;4.40;;;2.30;;
4226;SDS011;2127;51.046;7.080;2023-08-01T06:17:24;7.70;;;1.90;;
4226;SDS011;2127;51.046;7.080;2023-08-01T06:19:50;1.40;;;1.30;;
4226;SDS011;2127;51.046;7.080;2023-08-01T06:22:17;4.60;;;2.60;;
4226;SDS011;2127;51.046;7.080;2023-08-01T06:24:43;1.27;;;1.20;;
4226;SDS011;2127;51.046;7.080;2023-08-01T06:27:10;3.20;;;1.50;;
4226;SDS011;2127;51.046;7.080;2023-08-01T06:29:37;1.90;;;1.37;;
4226;SDS011;2127;51.046;7.080;2023-08-01T06:32:04;1.63;;;1.53;;
4226;SDS011;2127;51.046;7.080;2023-08-01T06:34:30;3.53;;;1.97;;
4226;SDS011;2127;51.046;7.080;2023-08-01T06:36:57;8.93;;;2.00;;
4226;SDS011;2127;51.046;7.080;2023-08-01T06:39:23;1.87;;;1.77;;
4226;SDS011;2127;51.046;7.080;2023-08-01T06:41:49;3.80;;;2.10;;
4226;SDS011;2127;51.046;7.080;2023-08-01T06:44:15;6.13;;;2.10;;
4226;SDS011;2127;51.046;7.080;2023-08-01T06:46:43;2.63;;;2.07;;
4226;SDS011;2127;51.046;7.080;2023-08-01T06:49:09;8.40;;;2.10;;
4226;SDS011;2127;51.046;7.080;2023-08-01T06:51:36;3.60;;;2.13;;
4226;SDS011;2127;51.046;7.080;2023-08-01T06:54:02;5.53;;;1.30;;
4226;SDS011;2127;51.046;7.080;2023-08-01T06:56:28;5.57;;;2.07;;
4226;SDS011;2127;51.046;7.080;2023-08-01T06:58:55;3.60;;;1.60;;
4226;SDS011;2127;51.046;7.080;2023-08-01T07:01:21;1.80;;;1.70;;
4226;SDS011;2127;51.046;7.080;2023-08-01T07:03:49;3.00;;;1.40;;
4226;SDS011;2127;51.046;7.080;2023-08-01T07:06:16;1.20;;;1.10;;
4226;SDS011;2127;51.046;7.080;2023-08-01T07:08:42;6.00;;;1.37;;
4226;SDS011;2127;51.046;7.080;2023-08-01T07:11:09;7.03;;;1.60;;
4226;SDS011;2127;51.046;7.080;2023-08-01T07:13:36;3.50;;;2.30;;
4226;SDS011;2127;51.046;7.080;2023-08-01T07:16:02;1.70;;;1.60;;
4226;SDS011;2127;51.046;7.080;2023-08-01T07:18:28;1.80;;;1.70;;
4226;SDS011;2127;51.046;7.080;2023-08-01T07:21:02;14.43;;;1.20;;
4226;SDS011;2127;51.046;7.080;2023-08-01T07:23:29;2.37;;;1.37;;
4226;SDS011;2127;51.046;7.080;2023-08-01T07:25:55;4.00;;;1.80;;
4226;SDS011;2127;51.046;7.080;2023-08-01T07:28:21;6.90;;;2.30;;
4226;SDS011;2127;51.046;7.080;2023-08-01T07:30:48;2.30;;;2.10;;
4226;SDS011;2127;51.046;7.080;2023-08-01T07:33:14;2.10;;;1.30;;
4226;SDS011;2127;51.046;7.080;2023-08-01T07:35:40;1.63;;;1.53;;
4226;SDS011;2127;51.046;7.080;2023-08-01T07:38:08;1.30;;;1.20;;
4226;SDS011;2127;51.046;7.080;2023-08-01T07:40:35;1.50;;;1.40;;
4226;SDS011;2127;51.046;7.080;2023-08-01T07:43:02;2.77;;;1.90;;
4226;SDS011;2127;51.046;7.080;2023-08-01T07:45:28;1.83;;;1.73;;
4226;SDS011;2127;51.046;7.080;2023-08-01T07:47:54;1.73;;;1.63;;
4226;SDS011;2127;51.046;7.080;2023-08-01T07:50:21;10.43;;;1.70;;
4226;SDS011;2127;51.046;7.080;2023-08-01T07:52:47;1.70;;;1.40;;
4226;SDS011;2127;51.046;7.080;2023-08-01T07:55:14;2.03;;;1.83;;
4226;SDS011;2127;51.046;7.080;2023-08-01T07:57:42;3.87;;;1.77;;
4226;SDS011;2127;51.046;7.080;2023-08-01T08:00:08;1.27;;;1.23;;
4226;SDS011;2127;51.046;7.080;2023-08-01T08:02:35;1.93;;;1.10;;
4226;SDS011;2127;51.046;7.080;2023-08-01T08:05:01;2.70;;;1.67;;
4226;SDS011;2127;51.046;7.080;2023-08-01T08:07:27;3.93;;;2.70;;
4226;SDS011;2127;51.046;7.080;2023-08-01T08:09:54;1.47;;;1.37;;
4226;SDS011;2127;51.046;7.080;2023-08-01T08:12:22;2.70;;;1.40;;
4226;SDS011;2127;51.046;7.080;2023-08-01T08:14:48;2.53;;;1.70;;
4226;SDS011;2127;51.046;7.080;2023-08-01T08:17:14;4.20;;;1.70;;
4226;SDS011;2127;51.046;7.080;2023-08-01T08:19:41;3.50;;;1.70;;
4226;SDS011;2127;51.046;7.080;2023-08-01T08:22:07;2.30;;;1.40;;
4226;SDS011;2127;51.046;7.080;2023-08-01T08:24:33;4.40;;;1.33;;
4226;SDS011;2127;51.046;7.080;2023-08-01T08:27:00;1.67;;;1.57;;
4226;SDS011;2127;51.046;7.080;2023-08-01T08:29:27;2.13;;;2.03;;
4226;SDS011;2127;51.046;7.080;2023-08-01T08:31:54;5.40;;;1.00;;
4226;SDS011;2127;51.046;7.080;2023-08-01T08:34:20;2.10;;;1.40;;
4226;SDS011;2127;51.046;7.080;2023-08-01T08:36:46;1.53;;;1.43;;
4226;SDS011;2127;51.046;7.080;2023-08-01T08:39:12;3.90;;;1.40;;
4226;SDS011;2127;51.046;7.080;2023-08-01T08:41:41;0.90;;;0.90;;
4226;SDS011;2127;51.046;7.080;2023-08-01T08:44:11;1.73;;;0.90;;
4226;SDS011;2127;51.046;7.080;2023-08-01T08:46:41;1.90;;;1.07;;
4226;SDS011;2127;51.046;7.080;2023-08-01T08:49:08;5.67;;;1.40;;
4226;SDS011;2127;51.046;7.080;2023-08-01T08:51:34;7.70;;;2.60;;
4226;SDS011;2127;51.046;7.080;2023-08-01T08:54:01;1.00;;;1.00;;
4226;SDS011;2127;51.046;7.080;2023-08-01T08:56:28;1.63;;;1.53;;
4226;SDS011;2127;51.046;7.080;2023-08-01T08:58:55;1.53;;;1.30;;
4226;SDS011;2127;51.046;7.080;2023-08-01T09:01:22;1.30;;;1.07;;
4226;SDS011;2127;51.046;7.080;2023-08-01T09:03:50;4.40;;;1.60;;
4226;SDS011;2127;51.046;7.080;2023-08-01T09:06:19;2.53;;;1.50;;
4226;SDS011;2127;51.046;7.080;2023-08-01T09:08:48;1.23;;;1.20;;
4226;SDS011;2127;51.046;7.080;2023-08-01T09:11:16;1.73;;;1.43;;
4226;SDS011;2127;51.046;7.080;2023-08-01T09:13:42;1.63;;;1.57;;
4226;SDS011;2127;51.046;7.080;2023-08-01T09:16:08;5.53;;;1.20;;
4226;SDS011;2127;51.046;7.080;2023-08-01T09:18:45;1.77;;;1.63;;
4226;SDS011;2127;51.046;7.080;2023-08-01T09:21:13;9.23;;;2.00;;
4226;SDS011;2127;51.046;7.080;2023-08-01T09:23:39;5.63;;;1.20;;
4226;SDS011;2127;51.046;7.080;2023-08-01T09:26:11;4.80;;;1.17;;
4226;SDS011;2127;51.046;7.080;2023-08-01T09:28:38;1.80;;;1.60;;
4226;SDS011;2127;51.046;7.080;2023-08-01T09:31:04;1.50;;;1.37;;
4226;SDS011;2127;51.046;7.080;2023-08-01T09:33:37;0.67;;;0.67;;
4226;SDS011;2127;51.046;7.080;2023-08-01T09:36:04;0.90;;;0.90;;
4226;SDS011;2127;51.046;7.080;2023-08-01T09:38:33;1.17;;;1.17;;
4226;SDS011;2127;51.046;7.080;2023-08-01T09:40:59;10.40;;;1.57;;
4226;SDS011;2127;51.046;7.080;2023-08-01T09:43:26;0.93;;;0.90;;
4226;SDS011;2127;51.046;7.080;2023-08-01T09:45:58;1.27;;;1.20;;
4226;SDS011;2127;51.046;7.080;2023-08-01T09:48:25;2.37;;;1.40;;
4226;SDS011;2127;51.046;7.080;2023-08-01T09:50:52;1.60;;;1.30;;
4226;SDS011;2127;51.046;7.080;2023-08-01T09:53:19;1.60;;;1.33;;
4226;SDS011;2127;51.046;7.080;2023-08-01T09:55:46;1.03;;;0.93;;
4226;SDS011;2127;51.046;7.080;2023-08-01T09:58:15;1.43;;;1.20;;
4226;SDS011;2127;51.046;7.080;2023-08-01T10:00:43;3.17;;;1.87;;
4226;SDS011;2127;51.046;7.080;2023-08-01T10:03:09;5.97;;;1.53;;
4226;SDS011;2127;51.046;7.080;2023-08-01T10:05:36;2.17;;;1.60;;
4226;SDS011;2127;51.046;7.080;2023-08-01T10:08:03;1.60;;;1.60;;
4226;SDS011;2127;51.046;7.080;2023-08-01T10:10:30;2.13;;;2.00;;
4226;SDS011;2127;51.046;7.080;2023-08-01T10:12:58;1.83;;;1.30;;
4226;SDS011;2127;51.046;7.080;2023-08-01T10:15:27;1.13;;;1.13;;
4226;SDS011;2127;51.046;7.080;2023-08-01T10:17:54;3.57;;;1.17;;
4226;SDS011;2127;51.046;7.080;2023-08-01T10:20:20;6.57;;;1.70;;
4226;SDS011;2127;51.046;7.080;2023-08-01T10:22:47;7.03;;;1.40;;
4226;SDS011;2127;51.046;7.080;2023-08-01T10:25:14;4.53;;;1.40;;
4226;SDS011;2127;51.046;7.080;2023-08-01T10:27:40;1.93;;;1.10;;
4226;SDS011;2127;51.046;7.080;2023-08-01T10:30:08;1.10;;;0.93;;
4226;SDS011;2127;51.046;7.080;2023-08-01T10:32:35;12.33;;;1.53;;
4226;SDS011;2127;51.046;7.080;2023-08-01T10:35:02;3.23;;;1.00;;
4226;SDS011;2127;51.046;7.080;2023-08-01T10:37:38;1.97;;;1.40;;
4226;SDS011;2127;51.046;7.080;2023-08-01T10:40:05;0.70;;;0.70;;
4226;SDS011;2127;51.046;7.080;2023-08-01T10:42:37;1.67;;;0.80;;
4226;SDS011;2127;51.046;7.080;2023-08-01T10:45:03;4.00;;;1.17;;
4226;SDS011;2127;51.046;7.080;2023-08-01T10:47:31;1.13;;;0.77;;
4226;SDS011;2127;51.046;7.080;2023-08-01T10:49:57;1.23;;;0.70;;
4226;SDS011;2127;51.046;7.080;2023-08-01T10:52:24;8.03;;;1.67;;
4226;SDS011;2127;51.046;7.080;2023-08-01T10:54:56;1.53;;;1.43;;
4226;SDS011;2127;51.046;7.080;2023-08-01T10:57:22;1.27;;;1.00;;
4226;SDS011;2127;51.046;7.080;2023-08-01T10:59:49;2.60;;;1.00;;
4226;SDS011;2127;51.046;7.080;2023-08-01T11:02:19;4.07;;;1.00;;
4226;SDS011;2127;51.046;7.080;2023-08-01T11:04:55;1.00;;;1.00;;
4226;SDS011;2127;51.046;7.080;2023-08-01T11:07:21;1.37;;;1.27;;
4226;SDS011;2127;51.046;7.080;2023-08-01T11:09:48;0.70;;;0.70;;
4226;SDS011;2127;51.046;7.080;2023-08-01T11:12:14;2.47;;;0.93;;
4226;SDS011;2127;51.046;7.080;2023-08-01T11:14:40;2.43;;;1.60;;
4226;SDS011;2127;51.046;7.080;2023-08-01T11:17:07;1.33;;;1.10;;
4226;SDS011;2127;51.046;7.080;2023-08-01T11:19:33;1.40;;;0.80;;
4226;SDS011;2127;51.046;7.080;2023-08-01T11:22:08;1.30;;;1.20;;
4226;SDS011;2127;51.046;7.080;2023-08-01T11:24:34;0.80;;;0.80;;
4226;SDS011;2127;51.046;7.080;2023-08-01T11:27:00;1.27;;;1.27;;
4226;SDS011;2127;51.046;7.080;2023-08-01T11:29:27;8.53;;;1.40;;
4226;SDS011;2127;51.046;7.080;2023-08-01T11:31:54;2.50;;;1.10;;
4226;SDS011;2127;51.046;7.080;2023-08-01T11:34:21;3.17;;;1.37;;
4226;SDS011;2127;51.046;7.080;2023-08-01T11:36:47;0.97;;;0.97;;
4226;SDS011;2127;51.046;7.080;2023-08-01T11:39:15;8.00;;;1.30;;
4226;SDS011;2127;51.046;7.080;2023-08-01T11:41:42;0.97;;;0.97;;
4226;SDS011;2127;51.046;7.080;2023-08-01T11:44:09;1.80;;;0.70;;
4226;SDS011;2127;51.046;7.080;2023-08-01T11:46:36;10.90;;;1.30;;
4226;SDS011;2127;51.046;7.080;2023-08-01T11:49:02;0.80;;;0.80;;
4226;SDS011;2127;51.046;7.080;2023-08-01T11:51:29;0.63;;;0.63;;
4226;SDS011;2127;51.046;7.080;2023-08-01T11:53:59;0.93;;;0.87;;
4226;SDS011;2127;51.046;7.080;2023-08-01T11:56:27;0.70;;;0.70;;
4226;SDS011;2127;51.046;7.080;2023-08-01T11:58:53;0.60;;;0.60;;
4226;SDS011;2127;51.046;7.080;2023-08-01T12:01:19;0.83;;;0.83;;
4226;SDS011;2127;51.046;7.080;2023-08-01T12:03:46;1.10;;;0.67;;
4226;SDS011;2127;51.046;7.080;2023-08-01T12:06:13;1.00;;;1.00;;
4226;SDS011;2127;51.046;7.080;2023-08-01T12:08:40;1.27;;;0.83;;
4226;SDS011;2127;51.046;7.080;2023-08-01T12:11:16;0.40;;;0.40;;
4226;SDS011;2127;51.046;7.080;2023-08-01T12:13:44;0.50;;;0.40;;
4226;SDS011;2127;51.046;7.080;2023-08-01T12:16:10;0.60;;;0.60;;
4226;SDS011;2127;51.046;7.080;2023-08-01T12:18:38;0.40;;;0.40;;
4226;SDS011;2127;51.046;7.080;2023-08-01T12:21:05;0.40;;;0.40;;
4226;SDS011;2127;51.046;7.080;2023-08-01T12:23:31;0.40;;;0.40;;
4226;SDS011;2127;51.046;7.080;2023-08-01T12:25:57;0.77;;;0.77;;
4226;SDS011;2127;51.046;7.080;2023-08-01T12:28:24;1.77;;;0.90;;
4226;SDS011;2127;51.046;7.080;2023-08-01T12:30:52;0.40;;;0.40;;
4226;SDS011;2127;51.046;7.080;2023-08-01T12:33:18;0.80;;;0.80;;
4226;SDS011;2127;51.046;7.080;2023-08-01T12:35:46;0.67;;;0.67;;
4226;SDS011;2127;51.046;7.080;2023-08-01T12:38:12;1.07;;;0.87;;
4226;SDS011;2127;51.046;7.080;2023-08-01T12:40:39;2.30;;;0.90;;
4226;SDS011;2127;51.046;7.080;2023-08-01T12:43:05;1.17;;;1.07;;
4226;SDS011;2127;51.046;7.080;2023-08-01T12:45:31;3.90;;;1.07;;
4226;SDS011;2127;51.046;7.080;2023-08-01T12:47:59;1.20;;;1.10;;
4226;SDS011;2127;51.046;7.080;2023-08-01T12:50:25;1.07;;;0.97;;
4226;SDS011;2127;51.046;7.080;2023-08-01T12:52:52;3.97;;;1.23;;
4226;SDS011;2127;51.046;7.080;2023-08-01T12:55:18;11.53;;;0.80;;
4226;SDS011;2127;51.046;7.080;2023-08-01T12:57:44;1.23;;;1.23;;
4226;SDS011;2127;51.046;7.080;2023-08-01T13:00:11;1.33;;;1.20;;
4226;SDS011;2127;51.046;7.080;2023-08-01T13:02:37;0.80;;;0.80;;
4226;SDS011;2127;51.046;7.080;2023-08-01T13:05:05;1.63;;;1.33;;
4226;SDS011;2127;51.046;7.080;2023-08-01T13:07:32;1.57;;;1.47;;
4226;SDS011;2127;51.046;7.080;2023-08-01T13:09:59;3.00;;;1.60;;
4226;SDS011;2127;51.046;7.080;2023-08-01T13:12:25;1.97;;;0.83;;
4226;SDS011;2127;51.046;7.080;2023-08-01T13:14:52;1.40;;;1.33;;
4226;SDS011;2127;51.046;7.080;2023-08-01T13:17:18;1.50;;;1.40;;
4226;SDS011;2127;51.046;7.080;2023-08-01T13:19:44;4.80;;;1.43;;
4226;SDS011;2127;51.046;7.080;2023-08-01T13:22:12;2.67;;;1.23;;
4226;SDS011;2127;51.046;7.080;2023-08-01T13:24:38;1.30;;;1.30;;
4226;SDS011;2127;51.046;7.080;2023-08-01T13:27:05;8.23;;;1.33;;
4226;SDS011;2127;51.046;7.080;2023-08-01T13:29:31;1.10;;;1.00;;
4226;SDS011;2127;51.046;7.080;2023-08-01T13:31:57;1.30;;;1.17;;
4226;SDS011;2127;51.046;7.080;2023-08-01T13:34:24;1.50;;;1.23;;
4226;SDS011;2127;51.046;7.080;2023-08-01T13:36:50;5.30;;;1.53;;
4226;SDS011;2127;51.046;7.080;2023-08-01T13:39:18;1.33;;;1.20;;
4226;SDS011;2127;51.046;7.080;2023-08-01T13:41:44;2.83;;;1.90;;
4226;SDS011;2127;51.046;7.080;2023-08-01T13:44:10;4.00;;;1.53;;
4226;SDS011;2127;51.046;7.080;2023-08-01T13:46:36;1.80;;;1.70;;
4226;SDS011;2127;51.046;7.080;2023-08-01T13:49:03;1.00;;;1.00;;
4226;SDS011;2127;51.046;7.080;2023-08-01T13:51:30;0.97;;;0.97;;
4226;SDS011;2127;51.046;7.080;2023-08-01T13:53:57;1.00;;;0.90;;
4226;SDS011;2127;51.046;7.080;2023-08-01T13:56:25;1.70;;;1.20;;
4226;SDS011;2127;51.046;7.080;2023-08-01T13:58:51;1.30;;;1.20;;
4226;SDS011;2127;51.046;7.080;2023-08-01T14:01:18;5.83;;;1.83;;
4226;SDS011;2127;51.046;7.080;2023-08-01T14:03:44;1.30;;;1.20;;
4226;SDS011;2127;51.046;7.080;2023-08-01T14:06:11;12.57;;;1.03;;
4226;SDS011;2127;51.046;7.080;2023-08-01T14:08:39;1.87;;;1.77;;
4226;SDS011;2127;51.046;7.080;2023-08-01T14:11:05;1.57;;;1.50;;
4226;SDS011;2127;51.046;7.080;2023-08-01T14:13:33;2.20;;;1.70;;
4226;SDS011;2127;51.046;7.080;2023-08-01T14:16:00;1.40;;;1.30;;
4226;SDS011;2127;51.046;7.080;2023-08-01T14:18:26;2.80;;;1.63;;
4226;SDS011;2127;51.046;7.080;2023-08-01T14:20:53;1.70;;;1.60;;
4226;SDS011;2127;51.046;7.080;2023-08-01T14:23:19;1.57;;;1.43;;
4226;SDS011;2127;51.046;7.080;2023-08-01T14:25:46;4.80;;;1.70;;
4226;SDS011;2127;51.046;7.080;2023-08-01T14:28:12;1.70;;;1.60;;
4226;SDS011;2127;51.046;7.080;2023-08-01T14:30:40;2.03;;;1.70;;
4226;SDS011;2127;51.046;7.080;2023-08-01T14:33:07;7.50;;;2.00;;
4226;SDS011;2127;51.046;7.080;2023-08-01T14:35:34;7.30;;;2.97;;
4226;SDS011;2127;51.046;7.080;2023-08-01T14:38:00;4.87;;;1.30;;
4226;SDS011;2127;51.046;7.080;2023-08-01T14:40:28;3.70;;;1.77;;
4226;SDS011;2127;51.046;7.080;2023-08-01T14:42:54;1.83;;;1.70;;
4226;SDS011;2127;51.046;7.080;2023-08-01T14:45:21;1.73;;;1.63;;
4226;SDS011;2127;51.046;7.080;2023-08-01T14:47:48;2.33;;;2.23;;
4226;SDS011;2127;51.046;7.080;2023-08-01T14:50:15;5.23;;;1.70;;
4226;SDS011;2127;51.046;7.080;2023-08-01T14:52:41;2.03;;;1.93;;
4226;SDS011;2127;51.046;7.080;2023-08-01T14:55:08;1.77;;;1.63;;
4226;SDS011;2127;51.046;7.080;2023-08-01T14:57:34;1.53;;;1.53;;
4226;SDS011;2127;51.046;7.080;2023-08-01T15:00:01;3.20;;;1.80;;
4226;SDS011;2127;51.046;7.080;2023-08-01T15:02:27;1.87;;;1.77;;
4226;SDS011;2127;51.046;7.080;2023-08-01T15:04:55;4.27;;;1.60;;
4226;SDS011;2127;51.046;7.080;2023-08-01T15:07:21;2.03;;;1.93;;
4226;SDS011;2127;51.046;7.080;2023-08-01T15:09:48;9.70;;;2.20;;
4226;SDS011;2127;51.046;7.080;2023-08-01T15:12:15;1.87;;;1.77;;